Time;durP1;ratioP1;P1;durP2;ratioP2;P2;SDS_P1;SDS_P2;PMS_P1;PMS_P2;Temp;Humidity;BMP_temperature;BMP_pressure;BME280_temperature;BME280_humidity;BME280_pressure;Samples;Min_cycle;Max_cycle;Signal;HPM_P1;HPM_P2
2022/08/23 00:02:08;;;;;;;2.55;1.95;;;30.80;99.90;;;;;;5049961;23;20332;-93
2022/08/23 00:07:27;;;;;;;2.72;1.83;;;30.10;99.90;;;;;;5025141;28;20240;-92
2022/08/23 00:13:10;;;;;;;1.73;1.45;;;30.50;99.90;;;;;;5032278;28;20220;-93
2022/08/23 00:15:59;;;;;;;1.75;1.65;;;30.50;99.90;;;;;;5034398;28;20221;-93
2022/08/23 00:18:30;;;;;;;1.60;1.50;;;30.70;99.90;;;;;;5031341;28;20240;-93
2022/08/23 00:21:06;;;;;;;2.63;1.70;;;30.90;99.90;;;;;;5022395;28;20209;-93
2022/08/23 00:23:40;;;;;;;2.60;1.90;;;30.90;99.90;;;;;;5027417;28;20209;-93
2022/08/23 00:26:12;;;;;;;2.78;1.50;;;31.00;99.90;;;;;;5030915;28;20205;-92
2022/08/23 00:28:44;;;;;;;1.80;1.70;;;31.00;99.90;;;;;;5027228;28;20557;-93
2022/08/23 00:31:18;;;;;;;4.22;2.00;;;31.00;99.90;;;;;;5022836;28;20710;-93
2022/08/23 00:33:49;;;;;;;3.05;1.85;;;30.90;99.90;;;;;;5022081;28;20737;-93
2022/08/23 00:36:21;;;;;;;2.50;1.58;;;30.70;99.90;;;;;;5020965;28;20213;-94
2022/08/23 00:38:54;;;;;;;1.42;1.33;;;30.40;99.90;;;;;;5020584;28;20213;-93
2022/08/23 00:41:25;;;;;;;2.20;1.50;;;30.20;99.90;;;;;;5018696;28;20210;-92
2022/08/23 00:49:41;;;;;;;1.92;1.42;;;29.80;99.90;;;;;;5018296;28;20567;-93
2022/08/23 00:52:21;;;;;;;2.07;1.33;;;29.90;99.90;;;;;;5027579;28;20209;-93
2022/08/23 00:54:55;;;;;;;1.92;1.30;;;29.60;99.90;;;;;;5025233;28;20214;-93
2022/08/23 00:57:29;;;;;;;1.33;1.23;;;29.20;99.90;;;;;;5003429;28;20233;-93
2022/08/23 01:00:00;;;;;;;2.05;1.10;;;29.30;99.90;;;;;;5007533;28;20662;-93
2022/08/23 01:02:34;;;;;;;2.22;1.20;;;29.40;99.90;;;;;;4998696;28;20214;-93
2022/08/23 01:05:07;;;;;;;1.23;1.10;;;29.40;99.90;;;;;;4999734;28;20269;-94
2022/08/23 01:07:47;;;;;;;2.05;1.25;;;29.60;99.90;;;;;;4999148;28;20579;-94
2022/08/23 01:10:34;;;;;;;1.40;1.30;;;29.80;99.90;;;;;;4999126;28;20198;-93
2022/08/23 01:13:12;;;;;;;2.43;1.27;;;30.00;99.90;;;;;;5000062;28;20674;-94
2022/08/23 01:15:47;;;;;;;1.30;1.20;;;30.10;99.90;;;;;;5012988;28;20209;-94
2022/08/23 01:18:24;;;;;;;2.35;1.35;;;30.50;99.90;;;;;;5018642;28;20264;-93
2022/08/23 01:21:01;;;;;;;2.03;1.35;;;30.80;99.90;;;;;;5017375;28;20601;-94
2022/08/23 01:23:41;;;;;;;1.40;1.20;;;31.00;99.90;;;;;;5016549;28;20248;-93
2022/08/23 01:26:13;;;;;;;1.47;1.33;;;30.60;99.90;;;;;;5019062;28;20221;-93
2022/08/23 01:28:51;;;;;;;1.73;1.30;;;29.90;99.90;;;;;;5017993;28;20213;-93
2022/08/23 01:31:24;;;;;;;1.50;1.20;;;29.70;99.90;;;;;;5020459;28;20267;-94
2022/08/23 01:42:24;;;;;;;1.87;1.50;;;28.40;99.90;;;;;;5013170;28;20244;-94
2022/08/23 01:45:15;;;;;;;2.03;1.33;;;28.10;99.90;;;;;;5322263;23;20225;-93
2022/08/23 01:47:46;;;;;;;1.97;1.23;;;27.90;99.90;;;;;;5030402;28;20273;-96
2022/08/23 01:50:26;;;;;;;1.30;1.20;;;27.70;99.90;;;;;;5030297;28;20244;-95
2022/08/23 01:53:00;;;;;;;2.27;1.40;;;27.60;99.90;;;;;;5030421;28;20266;-96
2022/08/23 01:58:36;;;;;;;1.73;1.30;;;27.20;99.90;;;;;;5033997;28;20225;-94
2022/08/23 02:04:37;;;;;;;1.60;1.20;;;27.00;99.90;;;;;;5034517;28;20208;-95
2022/08/23 02:07:11;;;;;;;1.70;1.50;;;26.90;99.90;;;;;;5032539;28;20216;-95
2022/08/23 02:09:42;;;;;;;1.93;1.20;;;26.70;99.90;;;;;;5023986;28;20225;-94
2022/08/23 02:12:14;;;;;;;2.57;1.20;;;26.60;99.90;;;;;;5020649;28;20228;-94
2022/08/23 02:22:51;;;;;;;1.67;0.93;;;26.30;99.90;;;;;;5036967;28;20217;-94
2022/08/23 02:28:29;;;;;;;1.80;1.17;;;26.10;99.90;;;;;;5033851;28;20241;-93
2022/08/23 02:31:13;;;;;;;1.87;1.27;;;26.00;99.90;;;;;;5033363;28;20213;-93
2022/08/23 02:33:58;;;;;;;1.60;1.13;;;25.90;99.90;;;;;;5033083;28;20209;-93
2022/08/23 02:36:38;;;;;;;1.10;1.00;;;25.80;99.90;;;;;;5031957;28;20208;-93
2022/08/23 02:43:22;;;;;;;1.13;1.03;;;25.60;99.90;;;;;;5031974;28;20207;-94
2022/08/23 02:45:57;;;;;;;1.30;1.20;;;25.50;99.90;;;;;;5032266;28;20210;-94
2022/08/23 02:48:31;;;;;;;1.87;1.20;;;25.40;99.90;;;;;;5031304;28;20209;-92
2022/08/23 02:51:06;;;;;;;2.77;1.10;;;25.30;99.90;;;;;;5025792;28;20271;-94
2022/08/23 02:56:41;;;;;;;5.30;1.40;;;25.00;99.90;;;;;;5032613;28;20206;-93
2022/08/23 03:02:03;;;;;;;3.07;1.17;;;24.80;99.90;;;;;;5031543;28;20228;-93
2022/08/23 03:04:34;;;;;;;2.63;1.50;;;24.70;99.90;;;;;;5019635;28;20263;-94
2022/08/23 03:07:06;;;;;;;2.57;1.27;;;24.60;99.90;;;;;;5020933;28;20210;-93
2022/08/23 03:09:38;;;;;;;2.63;1.40;;;24.50;99.90;;;;;;5018509;28;20637;-93
2022/08/23 03:18:00;;;;;;;2.13;1.30;;;24.10;99.90;;;;;;5134243;23;20358;-95
2022/08/23 03:20:33;;;;;;;2.33;1.73;;;24.00;99.90;;;;;;5019108;28;20217;-95
2022/08/23 03:23:06;;;;;;;2.73;1.37;;;23.90;99.90;;;;;;5018041;28;20197;-95
2022/08/23 03:25:38;;;;;;;2.50;1.23;;;23.90;99.90;;;;;;5018987;28;20194;-96
2022/08/23 03:28:10;;;;;;;2.47;1.30;;;23.70;99.90;;;;;;5019307;28;20221;-95
2022/08/23 03:30:43;;;;;;;3.10;1.60;;;23.60;99.90;;;;;;5016243;28;20214;-92
2022/08/23 03:33:44;;;;;;;3.03;1.57;;;23.60;99.90;;;;;;5011341;28;20221;-94
2022/08/23 03:41:57;;;;;;;2.23;1.37;;;23.50;99.90;;;;;;5021121;28;20238;-94
2022/08/23 03:44:31;;;;;;;1.70;1.20;;;23.40;99.90;;;;;;5019603;28;20213;-94
2022/08/23 03:47:04;;;;;;;3.53;1.40;;;23.40;99.90;;;;;;5018413;28;20735;-94
2022/08/23 03:49:38;;;;;;;1.47;1.20;;;23.30;99.90;;;;;;5023933;28;20210;-95
2022/08/23 03:52:12;;;;;;;1.40;1.07;;;23.20;99.90;;;;;;5024943;28;20224;-94
2022/08/23 03:57:40;;;;;;;1.50;1.00;;;23.00;99.90;;;;;;5023352;28;20205;-94
2022/08/23 04:00:16;;;;;;;1.27;1.17;;;22.90;99.90;;;;;;5021512;28;20244;-94
2022/08/23 04:02:51;;;;;;;1.10;0.90;;;22.80;99.90;;;;;;5027289;28;20261;-94
2022/08/23 04:05:27;;;;;;;1.80;1.20;;;22.80;99.90;;;;;;5027504;28;20217;-94
2022/08/23 04:08:12;;;;;;;1.57;1.00;;;22.80;99.90;;;;;;5025090;28;20198;-94
2022/08/23 04:16:13;;;;;;;1.70;1.00;;;22.60;99.90;;;;;;5031894;28;20225;-94
2022/08/23 04:18:50;;;;;;;1.23;1.13;;;22.50;99.90;;;;;;5045473;28;20251;-94
2022/08/23 04:21:55;;;;;;;1.10;1.00;;;22.50;99.90;;;;;;5055433;28;20227;-95
2022/08/23 04:24:36;;;;;;;3.23;1.10;;;22.40;99.90;;;;;;5056186;28;20204;-94
2022/08/23 04:27:21;;;;;;;2.03;1.00;;;22.30;99.90;;;;;;5053208;28;20209;-94
2022/08/23 04:29:54;;;;;;;1.23;0.87;;;22.20;99.90;;;;;;5052618;28;20215;-94
2022/08/23 04:32:26;;;;;;;1.17;0.90;;;22.20;99.90;;;;;;5217707;22;20241;-93
2022/08/23 04:37:44;;;;;;;1.20;0.80;;;22.10;99.90;;;;;;5012554;28;20213;-94
2022/08/23 04:43:16;;;;;;;2.43;0.90;;;22.00;99.90;;;;;;5008539;28;20218;-93
2022/08/23 04:46:05;;;;;;;1.30;0.90;;;21.90;99.90;;;;;;5012674;28;20194;-94
2022/08/23 04:53:54;;;;;;;1.00;0.90;;;21.60;99.90;;;;;;5020180;28;20637;-93
2022/08/23 04:56:29;;;;;;;1.43;0.80;;;21.50;99.90;;;;;;5022099;28;20687;-94
2022/08/23 04:59:00;;;;;;;2.00;1.03;;;21.50;99.90;;;;;;5020879;28;20234;-93
2022/08/23 05:01:33;;;;;;;1.03;0.73;;;21.40;99.90;;;;;;5017415;28;20293;-94
2022/08/23 05:04:06;;;;;;;0.73;0.60;;;21.40;99.90;;;;;;5018262;28;20732;-93
2022/08/23 05:06:38;;;;;;;0.70;0.70;;;21.30;99.90;;;;;;5018390;28;20213;-93
2022/08/23 05:09:13;;;;;;;1.03;0.80;;;21.30;99.90;;;;;;5019504;28;20220;-93
2022/08/23 05:11:52;;;;;;;1.63;0.70;;;21.30;99.90;;;;;;5020247;28;20209;-94
2022/08/23 05:14:23;;;;;;;0.83;0.60;;;21.20;99.90;;;;;;5018968;28;20572;-93
2022/08/23 05:16:54;;;;;;;1.17;0.70;;;21.10;99.90;;;;;;5017463;28;20244;-93
2022/08/23 05:19:26;;;;;;;0.50;0.50;;;21.10;99.90;;;;;;5019086;28;20229;-94
2022/08/23 05:21:58;;;;;;;1.17;0.67;;;21.00;99.90;;;;;;5017368;28;20206;-93
2022/08/23 05:24:29;;;;;;;1.03;0.90;;;20.90;99.90;;;;;;5017624;28;20322;-94
2022/08/23 05:27:02;;;;;;;0.60;0.60;;;20.90;99.90;;;;;;5020062;28;20213;-94
2022/08/23 05:32:32;;;;;;;1.87;1.10;;;20.80;99.90;;;;;;5032995;28;20204;-94
2022/08/23 05:35:17;;;;;;;2.53;0.90;;;20.80;99.90;;;;;;5040869;28;20220;-95
2022/08/23 05:37:50;;;;;;;0.93;0.90;;;20.70;99.90;;;;;;5041104;28;20261;-95
2022/08/23 05:40:37;;;;;;;1.70;1.00;;;20.70;99.90;;;;;;5039775;28;20224;-93
2022/08/23 05:43:12;;;;;;;3.23;1.10;;;20.60;99.90;;;;;;5039827;28;20185;-92
2022/08/23 05:45:45;;;;;;;1.80;0.83;;;20.50;99.90;;;;;;5040858;28;20197;-93
2022/08/23 05:48:17;;;;;;;1.20;0.80;;;20.40;99.90;;;;;;5040913;28;20193;-93
2022/08/23 05:50:48;;;;;;;2.47;1.10;;;20.40;99.90;;;;;;5040844;28;20201;-91
2022/08/23 05:53:20;;;;;;;1.27;0.87;;;20.30;99.90;;;;;;5040280;28;20206;-94
2022/08/23 05:58:28;;;;;;;2.13;0.80;;;20.30;99.90;;;;;;5000327;28;20733;-95
2022/08/23 06:01:10;;;;;;;2.73;0.83;;;20.20;99.90;;;;;;4995710;28;20231;-94
2022/08/23 06:06:40;;;;;;;2.23;0.90;;;20.10;99.90;;;;;;4994993;28;20206;-94
2022/08/23 06:09:25;;;;;;;2.97;0.90;;;20.00;99.90;;;;;;4996043;28;20215;-94
2022/08/23 06:12:05;;;;;;;2.33;1.10;;;19.90;99.90;;;;;;4993489;28;20223;-93
2022/08/23 06:20:39;;;;;;;1.00;0.90;;;19.70;99.90;;;;;;4992621;28;20265;-93
2022/08/23 06:23:10;;;;;;;0.93;0.70;;;19.60;99.90;;;;;;4981663;28;20238;-93
2022/08/23 06:25:44;;;;;;;1.00;0.90;;;19.60;99.90;;;;;;4983622;28;20207;-94
2022/08/23 06:28:16;;;;;;;2.47;1.00;;;19.50;99.90;;;;;;4981072;28;20222;-94
2022/08/23 06:30:56;;;;;;;2.10;0.80;;;19.50;99.90;;;;;;4982009;28;20214;-93
2022/08/23 06:33:30;;;;;;;2.43;1.00;;;19.40;99.90;;;;;;4990980;28;20211;-93
2022/08/23 06:36:07;;;;;;;2.17;1.00;;;19.30;99.90;;;;;;4981372;28;20214;-93
2022/08/23 06:38:39;;;;;;;2.73;1.00;;;19.30;99.90;;;;;;4980614;28;20210;-94
2022/08/23 06:41:15;;;;;;;1.57;1.00;;;19.20;99.90;;;;;;4972946;28;20244;-93
2022/08/23 06:43:46;;;;;;;1.80;0.80;;;19.10;99.90;;;;;;4961954;28;20207;-94
2022/08/23 06:46:33;;;;;;;2.77;0.80;;;19.10;99.90;;;;;;4970003;28;20345;-93
2022/08/23 06:49:11;;;;;;;0.90;0.80;;;19.10;99.90;;;;;;4944653;29;20208;-94
2022/08/23 06:51:45;;;;;;;2.00;0.80;;;19.00;99.90;;;;;;4942638;29;20611;-92
2022/08/23 06:54:19;;;;;;;1.27;0.90;;;19.00;99.90;;;;;;4940609;29;20260;-92
2022/08/23 06:56:51;;;;;;;2.37;0.80;;;19.00;99.90;;;;;;4941898;29;20250;-93
2022/08/23 06:59:23;;;;;;;2.80;0.90;;;18.90;99.90;;;;;;4942323;29;20216;-93
2022/08/23 07:01:57;;;;;;;2.87;0.90;;;18.80;99.90;;;;;;4942127;29;20228;-93
2022/08/23 07:04:34;;;;;;;1.40;0.90;;;18.80;99.90;;;;;;4948167;28;20215;-94
2022/08/23 07:07:08;;;;;;;1.10;0.80;;;18.80;99.90;;;;;;4946661;29;20204;-94
2022/08/23 07:12:34;;;;;;;2.37;1.20;;;18.70;99.90;;;;;;4950246;29;20279;-94
2022/08/23 07:15:06;;;;;;;2.03;1.00;;;18.70;99.90;;;;;;4942919;29;20708;-94
2022/08/23 07:17:38;;;;;;;1.60;0.87;;;18.60;99.90;;;;;;4942811;29;20239;-93
2022/08/23 07:20:13;;;;;;;1.53;1.00;;;18.60;99.90;;;;;;4940623;29;20231;-94
2022/08/23 07:22:44;;;;;;;3.70;0.90;;;18.60;99.90;;;;;;4941250;29;20255;-93
2022/08/23 07:25:16;;;;;;;2.67;0.97;;;18.50;99.90;;;;;;4942853;29;20216;-94
2022/08/23 07:27:47;;;;;;;2.40;1.17;;;18.50;99.90;;;;;;4940927;29;20216;-94
2022/08/23 07:30:19;;;;;;;3.30;0.90;;;18.50;99.90;;;;;;4941626;29;20217;-94
2022/08/23 07:32:51;;;;;;;2.57;1.10;;;18.40;99.90;;;;;;4940812;29;20271;-94
2022/08/23 07:35:27;;;;;;;1.90;1.10;;;18.40;99.90;;;;;;4941494;29;20212;-94
2022/08/23 07:37:59;;;;;;;2.47;1.10;;;18.30;99.90;;;;;;4944505;29;20242;-94
2022/08/23 07:40:32;;;;;;;3.40;0.90;;;18.30;99.90;;;;;;4944936;29;20244;-94
2022/08/23 07:43:08;;;;;;;1.87;0.93;;;18.20;99.90;;;;;;4941236;29;20294;-94
2022/08/23 07:45:42;;;;;;;2.50;1.10;;;18.20;99.90;;;;;;4953475;29;20263;-94
2022/08/23 07:48:13;;;;;;;2.83;1.20;;;18.10;99.90;;;;;;4960249;28;20211;-94
2022/08/23 07:51:06;;;;;;;1.60;0.90;;;18.10;99.90;;;;;;4961316;28;20245;-94
2022/08/23 07:53:38;;;;;;;3.50;0.90;;;18.00;99.90;;;;;;4961928;28;20581;-93
2022/08/23 07:56:16;;;;;;;2.70;0.90;;;18.00;99.90;;;;;;4963302;28;20226;-95
2022/08/23 07:58:47;;;;;;;4.53;1.30;;;17.90;99.90;;;;;;4963622;28;20218;-94
2022/08/23 08:01:22;;;;;;;2.50;1.20;;;17.90;99.90;;;;;;4964794;28;20239;-95
2022/08/23 08:03:55;;;;;;;1.87;1.13;;;17.80;99.90;;;;;;4962512;28;20644;-94
2022/08/23 08:06:32;;;;;;;2.80;1.10;;;17.70;99.90;;;;;;4960388;28;20215;-94
2022/08/23 08:09:04;;;;;;;3.30;1.20;;;17.70;99.90;;;;;;4962422;28;20219;-92
2022/08/23 08:11:36;;;;;;;1.37;0.80;;;17.60;99.90;;;;;;4962327;28;20238;-93
2022/08/23 08:14:09;;;;;;;2.33;0.90;;;17.50;99.90;;;;;;4962583;28;20203;-93
2022/08/23 08:16:42;;;;;;;2.20;1.20;;;17.50;99.90;;;;;;4963909;28;20617;-93
2022/08/23 08:19:16;;;;;;;4.30;1.10;;;17.40;99.90;;;;;;4964339;28;20195;-93
2022/08/23 08:21:50;;;;;;;1.27;1.17;;;17.40;99.90;;;;;;4969438;28;20250;-91
2022/08/23 08:24:22;;;;;;;1.37;0.80;;;17.40;99.90;;;;;;4979095;28;20210;-92
2022/08/23 08:26:53;;;;;;;2.37;1.10;;;17.40;99.90;;;;;;4978939;28;20228;-91
2022/08/23 08:29:24;;;;;;;2.10;1.20;;;17.30;99.90;;;;;;4979212;28;20180;-92
2022/08/23 08:31:56;;;;;;;1.23;0.70;;;17.30;99.90;;;;;;4972604;28;20215;-92
2022/08/23 08:34:31;;;;;;;1.53;1.00;;;17.30;99.90;;;;;;4967300;28;20286;-92
2022/08/23 08:37:31;;;;;;;2.60;1.10;;;17.30;99.90;;;;;;4965664;28;20290;-93
2022/08/23 08:40:18;;;;;;;1.70;1.10;;;17.20;99.90;;;;;;4966201;29;20288;-92
2022/08/23 08:43:16;;;;;;;1.23;0.90;;;17.20;99.90;;;;;;4966794;28;20215;-93
2022/08/23 08:46:00;;;;;;;3.90;1.10;;;17.20;99.90;;;;;;4967486;28;20230;-93
2022/08/23 08:48:41;;;;;;;1.10;0.90;;;17.10;99.90;;;;;;4964185;28;20657;-92
2022/08/23 08:51:26;;;;;;;2.37;1.13;;;17.10;99.90;;;;;;4964557;28;20246;-93
2022/08/23 08:54:03;;;;;;;1.90;0.87;;;17.10;99.90;;;;;;4964865;28;20208;-92
2022/08/23 08:56:37;;;;;;;1.37;1.10;;;17.10;99.90;;;;;;4965183;28;20629;-92
2022/08/23 08:59:12;;;;;;;1.37;1.00;;;17.10;99.90;;;;;;4965188;29;20278;-92
2022/08/23 09:01:44;;;;;;;1.90;1.10;;;17.00;99.90;;;;;;4963798;28;20704;-92
2022/08/23 09:04:18;;;;;;;2.73;0.90;;;17.00;99.90;;;;;;4961940;28;20212;-93
2022/08/23 09:06:57;;;;;;;2.60;0.97;;;17.00;99.90;;;;;;4959392;28;20597;-92
2022/08/23 09:09:55;;;;;;;1.00;0.87;;;17.00;99.90;;;;;;4959523;28;20215;-91
2022/08/23 09:12:38;;;;;;;1.37;0.90;;;16.90;99.90;;;;;;4948960;29;20215;-91
2022/08/23 09:15:22;;;;;;;1.37;0.93;;;16.90;99.90;;;;;;4964937;28;20295;-91
2022/08/23 09:17:55;;;;;;;1.50;0.90;;;16.90;99.90;;;;;;4967743;28;20219;-92
2022/08/23 09:20:30;;;;;;;1.17;1.00;;;16.80;99.90;;;;;;4959307;28;20219;-93
2022/08/23 09:23:09;;;;;;;1.63;0.90;;;16.80;99.90;;;;;;4958620;28;20227;-91
2022/08/23 09:25:51;;;;;;;1.47;0.87;;;16.80;99.90;;;;;;4959280;28;20712;-93
2022/08/23 09:28:23;;;;;;;1.70;1.00;;;16.80;99.90;;;;;;4959936;28;20235;-91
2022/08/23 09:30:55;;;;;;;1.17;0.90;;;16.80;99.90;;;;;;4958780;28;20243;-93
2022/08/23 09:33:37;;;;;;;1.77;1.00;;;16.80;99.90;;;;;;4957823;28;20215;-92
2022/08/23 09:36:17;;;;;;;1.13;0.83;;;16.80;99.90;;;;;;4958419;28;20216;-93
2022/08/23 09:38:56;;;;;;;1.00;0.80;;;16.70;99.90;;;;;;4960144;28;20671;-93
2022/08/23 09:41:35;;;;;;;1.07;0.80;;;16.80;99.90;;;;;;4966448;28;20239;-92
2022/08/23 09:44:12;;;;;;;1.60;0.83;;;16.70;99.90;;;;;;4966943;28;20207;-92
2022/08/23 09:46:45;;;;;;;1.13;0.97;;;16.70;99.90;;;;;;4958923;28;20219;-93
2022/08/23 09:49:26;;;;;;;1.90;1.00;;;16.70;99.90;;;;;;4958933;28;20267;-92
2022/08/23 09:52:00;;;;;;;2.70;1.10;;;16.70;99.90;;;;;;4958367;28;20215;-92
2022/08/23 09:54:34;;;;;;;2.03;0.90;;;16.70;99.90;;;;;;4958094;28;20207;-93
2022/08/23 09:57:12;;;;;;;0.87;0.80;;;16.70;99.90;;;;;;4961496;28;20219;-92
2022/08/23 09:59:45;;;;;;;2.27;1.00;;;16.70;99.90;;;;;;4961107;28;20243;-92
2022/08/23 10:02:25;;;;;;;3.53;1.10;;;16.60;99.90;;;;;;4961708;28;20333;-92
2022/08/23 10:05:02;;;;;;;1.67;0.90;;;16.60;99.90;;;;;;4962528;28;20215;-92
2022/08/23 10:07:40;;;;;;;2.83;1.00;;;16.50;99.90;;;;;;4959331;28;20215;-92
2022/08/23 10:10:24;;;;;;;2.83;0.97;;;16.40;99.90;;;;;;4958460;28;20294;-92
2022/08/23 10:12:58;;;;;;;2.23;0.90;;;16.40;99.90;;;;;;4959268;28;20274;-93
2022/08/23 10:15:48;;;;;;;2.37;1.00;;;16.40;99.90;;;;;;4962658;28;20215;-92
2022/08/23 10:18:33;;;;;;;3.43;1.23;;;16.40;99.90;;;;;;4963586;29;20299;-92
2022/08/23 10:21:08;;;;;;;1.77;0.90;;;16.40;99.90;;;;;;4963245;28;20497;-92
2022/08/23 10:23:49;;;;;;;1.20;0.80;;;16.40;99.90;;;;;;4963808;28;20571;-92
2022/08/23 10:26:25;;;;;;;1.83;0.90;;;16.40;99.90;;;;;;4964522;28;20652;-92
2022/08/23 10:32:07;;;;;;;2.07;0.90;;;16.30;99.90;;;;;;4979336;28;20243;-92
2022/08/23 10:34:48;;;;;;;2.00;1.00;;;16.30;99.90;;;;;;4980591;28;20211;-92
2022/08/23 10:37:46;;;;;;;5.57;1.50;;;16.20;99.90;;;;;;4980401;28;20203;-91
2022/08/23 10:40:24;;;;;;;2.50;1.20;;;16.20;99.90;;;;;;4979400;28;20215;-93
2022/08/23 10:43:10;;;;;;;1.07;0.97;;;16.20;99.90;;;;;;4979482;28;20231;-92
2022/08/23 10:45:47;;;;;;;1.83;1.03;;;16.20;99.90;;;;;;4980001;28;20199;-92
2022/08/23 10:48:27;;;;;;;2.57;1.00;;;16.20;99.90;;;;;;4980354;28;20203;-93
2022/08/23 10:51:02;;;;;;;3.63;1.10;;;16.10;99.90;;;;;;4970462;28;20212;-93
2022/08/23 10:53:45;;;;;;;1.17;0.90;;;16.10;99.90;;;;;;4965648;28;20278;-93
2022/08/23 10:56:19;;;;;;;3.23;0.90;;;16.10;99.90;;;;;;4971533;28;20243;-93
2022/08/23 10:58:55;;;;;;;2.67;1.00;;;16.10;99.90;;;;;;4969261;29;20274;-93
2022/08/23 11:01:35;;;;;;;1.87;1.37;;;16.10;99.90;;;;;;4962208;28;20207;-92
2022/08/23 11:04:17;;;;;;;3.23;1.10;;;16.00;99.90;;;;;;4964223;29;20282;-92
2022/08/23 11:06:54;;;;;;;3.23;1.20;;;16.00;99.90;;;;;;4963545;28;20207;-92
2022/08/23 11:09:57;;;;;;;1.80;1.20;;;16.00;99.90;;;;;;4963493;29;20250;-92
2022/08/23 11:12:33;;;;;;;2.40;0.90;;;16.00;99.90;;;;;;4962737;28;20214;-92
2022/08/23 11:15:29;;;;;;;3.10;1.37;;;16.00;99.90;;;;;;4963344;28;20219;-92
2022/08/23 11:18:06;;;;;;;2.43;0.90;;;15.90;99.90;;;;;;4962660;28;20246;-92
2022/08/23 11:21:00;;;;;;;1.70;0.87;;;15.90;99.90;;;;;;4962802;28;20557;-92
2022/08/23 11:23:52;;;;;;;1.90;0.97;;;15.90;99.90;;;;;;4960036;29;20239;-92
2022/08/23 11:27:05;;;;;;;1.10;0.90;;;15.80;99.90;;;;;;4960966;28;20215;-92
2022/08/23 11:29:42;;;;;;;1.60;0.97;;;15.80;99.90;;;;;;4963935;28;20297;-92
2022/08/23 11:32:32;;;;;;;1.03;0.90;;;15.80;99.90;;;;;;4965654;28;20208;-92
2022/08/23 11:35:28;;;;;;;2.03;0.93;;;15.70;99.90;;;;;;4963779;28;20211;-93
2022/08/23 11:38:02;;;;;;;1.40;0.80;;;15.70;99.90;;;;;;4961826;28;20204;-92
2022/08/23 11:41:19;;;;;;;1.77;0.80;;;15.70;99.90;;;;;;4961809;28;20290;-92
2022/08/23 11:44:12;;;;;;;1.90;1.00;;;15.70;99.90;;;;;;4961715;28;20752;-92
2022/08/23 11:47:04;;;;;;;1.67;1.00;;;15.70;99.90;;;;;;4942533;29;20213;-92
2022/08/23 11:50:06;;;;;;;2.13;1.00;;;15.70;99.90;;;;;;4942635;29;20228;-91
2022/08/23 11:53:08;;;;;;;2.63;1.07;;;15.60;99.90;;;;;;4943269;29;20299;-92
2022/08/23 11:56:11;;;;;;;1.83;0.97;;;15.60;99.90;;;;;;4940330;29;20242;-92
2022/08/23 11:59:17;;;;;;;3.20;1.00;;;15.40;99.90;;;;;;4941808;29;20259;-92
2022/08/23 12:01:48;;;;;;;1.47;1.00;;;15.50;99.90;;;;;;4940607;29;20204;-92
2022/08/23 12:04:34;;;;;;;1.40;0.90;;;15.50;99.90;;;;;;4941911;29;20696;-92
2022/08/23 12:07:11;;;;;;;3.33;1.00;;;15.40;99.90;;;;;;4942269;29;20208;-92
2022/08/23 12:10:07;;;;;;;2.00;1.03;;;15.50;99.90;;;;;;4941684;29;20215;-92
2022/08/23 12:12:38;;;;;;;2.00;0.90;;;15.40;99.90;;;;;;4943192;29;20216;-92
2022/08/23 12:15:18;;;;;;;1.90;1.00;;;15.40;99.90;;;;;;4961586;28;20287;-92
2022/08/23 12:18:12;;;;;;;2.67;1.07;;;15.40;99.90;;;;;;4962934;28;20239;-93
2022/08/23 12:20:46;;;;;;;4.80;1.10;;;15.40;99.90;;;;;;4965440;28;20743;-92
2022/08/23 12:23:21;;;;;;;2.63;1.10;;;15.30;99.90;;;;;;4961267;28;20770;-92
2022/08/23 12:26:11;;;;;;;1.57;1.03;;;15.30;99.90;;;;;;4965087;28;20675;-92
2022/08/23 12:28:47;;;;;;;1.30;1.00;;;15.30;99.90;;;;;;4964443;28;20204;-92
2022/08/23 12:31:25;;;;;;;2.27;1.10;;;15.30;99.90;;;;;;4962091;28;20207;-94
2022/08/23 12:34:18;;;;;;;1.43;1.10;;;15.30;99.90;;;;;;4961387;28;20235;-92
2022/08/23 12:36:58;;;;;;;2.47;1.00;;;15.30;99.90;;;;;;4961407;28;20223;-92
2022/08/23 12:39:33;;;;;;;1.33;1.03;;;15.20;99.90;;;;;;4963309;28;20616;-92
2022/08/23 12:42:14;;;;;;;1.43;1.30;;;15.20;99.90;;;;;;4960446;28;20264;-92
2022/08/23 12:44:46;;;;;;;1.80;1.17;;;15.20;99.90;;;;;;4959844;28;20653;-93
2022/08/23 12:47:21;;;;;;;2.17;1.07;;;15.10;99.90;;;;;;4961912;28;20270;-92
2022/08/23 12:49:59;;;;;;;3.60;1.27;;;15.10;99.90;;;;;;4963201;28;20211;-92
2022/08/23 12:52:32;;;;;;;1.33;1.13;;;15.10;99.90;;;;;;4959167;28;20624;-92
2022/08/23 12:55:12;;;;;;;3.30;1.10;;;15.10;99.90;;;;;;4963180;28;20211;-92
2022/08/23 12:57:56;;;;;;;1.53;1.00;;;15.10;99.90;;;;;;4958027;29;20243;-92
2022/08/23 13:00:32;;;;;;;2.80;1.30;;;15.10;99.90;;;;;;4959587;28;20223;-92
2022/08/23 13:03:08;;;;;;;1.47;1.37;;;15.00;99.90;;;;;;4958211;28;20727;-92
2022/08/23 13:05:44;;;;;;;1.33;1.00;;;15.00;99.90;;;;;;4959440;28;20620;-92
2022/08/23 13:08:19;;;;;;;5.40;1.30;;;15.00;99.90;;;;;;4959196;28;20212;-92
2022/08/23 13:11:03;;;;;;;3.37;1.17;;;14.90;99.90;;;;;;4958932;28;20208;-93
2022/08/23 13:13:41;;;;;;;2.33;1.23;;;14.90;99.90;;;;;;4958672;28;20210;-92
2022/08/23 13:16:28;;;;;;;2.57;1.13;;;14.90;99.90;;;;;;4959506;28;20237;-92
2022/08/23 13:19:17;;;;;;;1.30;1.10;;;14.90;99.90;;;;;;4959619;28;20234;-92
2022/08/23 13:21:49;;;;;;;2.03;0.90;;;14.80;99.90;;;;;;4958432;28;20215;-92
2022/08/23 13:24:34;;;;;;;2.00;0.90;;;14.70;99.90;;;;;;4959501;28;20245;-92
2022/08/23 13:27:21;;;;;;;2.67;1.30;;;14.80;99.90;;;;;;4959230;28;20219;-93
2022/08/23 13:30:24;;;;;;;1.40;0.87;;;14.80;99.90;;;;;;4959110;28;20242;-92
2022/08/23 13:33:20;;;;;;;2.67;1.10;;;14.80;99.90;;;;;;4959009;28;20219;-93
2022/08/23 13:36:06;;;;;;;2.47;1.20;;;14.80;99.90;;;;;;4959036;28;20218;-91
2022/08/23 13:38:44;;;;;;;1.60;1.10;;;14.80;99.90;;;;;;4959371;28;20958;-92
2022/08/23 13:41:32;;;;;;;3.27;1.10;;;14.80;99.90;;;;;;4958606;28;20271;-93
2022/08/23 13:44:09;;;;;;;1.53;1.33;;;14.80;99.90;;;;;;4959698;28;20244;-92
2022/08/23 13:46:50;;;;;;;2.33;1.40;;;14.80;99.90;;;;;;4958872;28;20215;-92
2022/08/23 13:49:23;;;;;;;5.37;1.40;;;14.90;99.90;;;;;;4962037;28;20660;-93
2022/08/23 13:52:08;;;;;;;2.37;1.30;;;14.90;99.90;;;;;;4962261;28;20211;-92
2022/08/23 13:55:00;;;;;;;1.87;1.27;;;14.90;99.90;;;;;;4962206;29;20608;-93
2022/08/23 13:57:35;;;;;;;1.87;1.30;;;14.90;99.90;;;;;;4963525;28;20290;-92
2022/08/23 14:00:09;;;;;;;1.20;1.10;;;15.00;99.90;;;;;;4965688;28;20216;-92
2022/08/23 14:02:50;;;;;;;2.17;1.30;;;15.00;99.90;;;;;;4980440;28;20218;-94
2022/08/23 14:05:23;;;;;;;3.40;1.40;;;15.00;99.90;;;;;;4981049;28;20200;-92
2022/08/23 14:07:55;;;;;;;1.80;1.13;;;15.00;99.90;;;;;;4959410;29;20240;-93
2022/08/23 14:10:27;;;;;;;2.50;1.30;;;15.00;99.90;;;;;;4961900;28;20196;-93
2022/08/23 14:13:00;;;;;;;2.27;1.20;;;15.00;99.90;;;;;;4960735;28;20232;-92
2022/08/23 14:15:32;;;;;;;1.97;1.03;;;15.00;99.90;;;;;;4972671;29;20318;-92
2022/08/23 14:18:25;;;;;;;5.53;1.37;;;15.10;99.90;;;;;;4977366;28;20243;-92
2022/08/23 14:20:58;;;;;;;4.43;1.07;;;15.20;99.90;;;;;;4982444;28;20213;-92
2022/08/23 14:23:29;;;;;;;0.80;0.80;;;15.20;99.90;;;;;;4982095;28;20234;-92
2022/08/23 14:26:00;;;;;;;1.67;0.70;;;15.20;99.90;;;;;;4982717;28;20203;-92
2022/08/23 14:28:32;;;;;;;1.83;0.90;;;15.30;99.90;;;;;;4981980;28;20672;-92
2022/08/23 14:31:05;;;;;;;3.33;1.13;;;15.30;99.90;;;;;;4982388;28;20218;-92
2022/08/23 14:33:39;;;;;;;1.20;0.83;;;15.40;99.90;;;;;;4981525;28;20242;-92
2022/08/23 14:36:12;;;;;;;1.07;0.77;;;15.50;99.90;;;;;;4981082;28;20266;-92
2022/08/23 14:38:44;;;;;;;2.03;1.20;;;15.50;99.90;;;;;;4973022;28;20257;-92
2022/08/23 14:41:22;;;;;;;1.50;0.90;;;15.50;99.90;;;;;;4961646;28;20557;-94
2022/08/23 14:43:54;;;;;;;0.80;0.80;;;15.60;99.90;;;;;;4961654;28;20286;-92
2022/08/23 14:46:26;;;;;;;1.57;1.00;;;15.70;99.90;;;;;;4961711;28;20271;-92
2022/08/23 14:48:59;;;;;;;1.37;0.80;;;15.70;99.90;;;;;;4961758;28;20219;-92
2022/08/23 14:51:33;;;;;;;2.40;0.90;;;15.70;99.90;;;;;;4962331;28;20275;-92
2022/08/23 14:54:15;;;;;;;1.57;0.90;;;15.80;99.90;;;;;;4961163;28;21093;-93
2022/08/23 14:56:47;;;;;;;1.33;1.10;;;15.80;99.90;;;;;;4961453;28;20626;-92
2022/08/23 14:59:19;;;;;;;2.90;1.10;;;15.90;99.90;;;;;;4962604;28;20714;-92
2022/08/23 15:01:57;;;;;;;1.07;0.73;;;15.90;99.90;;;;;;4960693;28;20235;-92
2022/08/23 15:04:30;;;;;;;2.00;1.00;;;16.00;99.90;;;;;;4966476;28;20627;-93
2022/08/23 15:07:04;;;;;;;1.97;0.93;;;16.10;99.90;;;;;;4963234;28;20211;-93
2022/08/23 15:09:47;;;;;;;3.80;0.97;;;16.20;99.90;;;;;;4961769;28;20727;-92
2022/08/23 15:26:52;;;;;;;1.27;1.00;;;16.90;99.90;;;;;;5034168;28;20666;-93
2022/08/23 15:35:27;;;;;;;4.50;1.20;;;17.40;99.90;;;;;;5031960;28;20304;-93
2022/08/23 15:38:06;;;;;;;1.87;1.13;;;17.50;99.90;;;;;;5033047;28;20225;-91
2022/08/23 15:43:25;;;;;;;4.00;1.43;;;17.70;99.90;;;;;;5030736;28;20213;-93
2022/08/23 15:46:11;;;;;;;1.47;1.00;;;17.70;99.90;;;;;;5031674;28;20217;-92